createdAt,value
2022-09-06T00:02:20.213Z,3.70
2022-09-06T00:04:49.895Z,3.50
2022-09-06T00:07:17.658Z,3.55
2022-09-06T00:09:45.380Z,3.47
2022-09-06T00:12:13.113Z,3.53
2022-09-06T00:14:40.878Z,3.50
2022-09-06T00:17:08.684Z,3.92
2022-09-06T00:19:36.371Z,3.78
2022-09-06T00:22:05.546Z,3.75
2022-09-06T00:24:33.417Z,4.32
2022-09-06T00:27:01.365Z,4.20
2022-09-06T00:29:29.081Z,4.00
2022-09-06T00:31:56.797Z,3.90
2022-09-06T00:34:24.534Z,3.75
2022-09-06T00:36:52.298Z,4.28
2022-09-06T00:39:21.518Z,3.90
2022-09-06T00:41:49.267Z,3.67
2022-09-06T00:44:17.045Z,3.72
2022-09-06T00:46:47.519Z,3.90
2022-09-06T00:49:24.152Z,3.85
2022-09-06T00:51:54.701Z,3.80
2022-09-06T00:54:24.114Z,3.42
2022-09-06T00:56:51.854Z,3.53
2022-09-06T00:59:19.741Z,3.88
2022-09-06T01:01:47.530Z,3.60
2022-09-06T01:04:15.733Z,3.90
2022-09-06T01:06:56.147Z,3.38
2022-09-06T01:09:38.599Z,3.75
2022-09-06T01:14:54.655Z,3.75
2022-09-06T01:17:35.322Z,3.75
2022-09-06T01:20:33.689Z,3.80
2022-09-06T01:23:35.030Z,3.70
2022-09-06T01:26:23.819Z,3.67
2022-09-06T01:28:54.950Z,3.50
2022-09-06T01:31:30.002Z,3.45
2022-09-06T01:34:12.581Z,3.33
2022-09-06T01:39:34.808Z,3.85
2022-09-06T01:42:09.072Z,3.53
2022-09-06T01:44:40.862Z,3.22
2022-09-06T01:47:21.089Z,3.35
2022-09-06T01:50:04.644Z,3.30
2022-09-06T01:52:36.814Z,3.50
2022-09-06T01:57:56.394Z,3.40
2022-09-06T02:00:26.166Z,3.97
2022-09-06T02:03:04.237Z,3.42
2022-09-06T02:05:37.109Z,2.92
2022-09-06T02:08:11.973Z,3.13
2022-09-06T02:10:43.900Z,3.17
2022-09-06T02:13:14.388Z,3.25
2022-09-06T02:15:48.862Z,3.30
2022-09-06T02:18:21.610Z,3.50
2022-09-06T02:20:53.014Z,3.80
2022-09-06T02:23:24.334Z,4.13
2022-09-06T02:25:55.842Z,4.00
2022-09-06T02:28:24.067Z,3.75
2022-09-06T02:30:59.170Z,3.72
2022-09-06T02:33:30.031Z,4.35
2022-09-06T02:36:03.722Z,3.25
2022-09-06T02:38:34.083Z,3.67
2022-09-06T02:41:02.172Z,4.13
2022-09-06T02:43:29.905Z,4.05
2022-09-06T02:45:59.023Z,4.10
2022-09-06T02:48:26.858Z,4.00
2022-09-06T02:50:54.653Z,4.80
2022-09-06T02:53:22.375Z,4.75
2022-09-06T02:55:50.255Z,4.63
2022-09-06T02:58:18.018Z,4.20
2022-09-06T03:00:45.948Z,4.38
2022-09-06T03:03:15.150Z,4.63
2022-09-06T03:05:43.431Z,4.55
2022-09-06T03:08:11.117Z,4.70
2022-09-06T03:10:39.013Z,3.72
2022-09-06T03:13:07.023Z,4.60
2022-09-06T03:15:34.747Z,4.80
2022-09-06T03:18:02.433Z,4.70
2022-09-06T03:20:36.381Z,5.32
2022-09-06T03:23:04.764Z,4.70
2022-09-06T03:25:32.642Z,5.05
2022-09-06T03:28:00.370Z,4.32
2022-09-06T03:30:28.123Z,4.22
2022-09-06T03:32:55.886Z,4.07
2022-09-06T03:35:23.573Z,3.22
2022-09-06T03:37:52.597Z,4.20
2022-09-06T03:40:20.371Z,4.05
2022-09-06T03:42:48.185Z,4.00
2022-09-06T03:45:15.986Z,4.70
2022-09-06T03:47:43.669Z,4.40
2022-09-06T03:50:11.430Z,5.07
2022-09-06T03:52:39.381Z,5.80
2022-09-06T03:55:09.461Z,5.80
2022-09-06T03:57:37.159Z,4.85
2022-09-06T04:00:05.918Z,4.78
2022-09-06T04:02:33.678Z,4.22
2022-09-06T04:05:01.400Z,4.30
2022-09-06T04:07:29.098Z,5.45
2022-09-06T04:09:57.003Z,5.28
2022-09-06T04:12:26.131Z,5.10
2022-09-06T04:14:53.799Z,5.63
2022-09-06T04:17:21.502Z,5.78
2022-09-06T04:19:49.200Z,6.50
2022-09-06T04:22:16.897Z,4.75
2022-09-06T04:24:44.619Z,5.50
2022-09-06T04:27:12.285Z,4.85
2022-09-06T04:29:41.379Z,4.80
2022-09-06T04:32:09.115Z,5.55
2022-09-06T04:34:36.905Z,5.45
2022-09-06T04:37:04.711Z,5.57
2022-09-06T04:39:32.421Z,5.95
2022-09-06T04:42:00.121Z,5.68
2022-09-06T04:44:27.799Z,4.75
2022-09-06T04:47:09.517Z,5.43
2022-09-06T04:49:37.524Z,5.13
2022-09-06T04:52:05.347Z,5.90
2022-09-06T04:54:33.221Z,6.68
2022-09-06T04:57:00.937Z,5.97
2022-09-06T04:59:28.668Z,5.68
2022-09-06T05:01:56.486Z,9.93
2022-09-06T05:04:25.639Z,7.10
2022-09-06T05:07:02.028Z,6.03
2022-09-06T05:09:30.175Z,7.10
2022-09-06T05:11:58.054Z,6.65
2022-09-06T05:14:25.801Z,6.47
2022-09-06T05:16:54.373Z,6.15
2022-09-06T05:19:22.634Z,7.00
2022-09-06T05:21:55.787Z,6.00
2022-09-06T05:24:23.498Z,6.65
2022-09-06T05:26:51.289Z,7.32
2022-09-06T05:29:18.983Z,6.40
2022-09-06T05:31:46.791Z,6.25
2022-09-06T05:34:15.084Z,6.63
2022-09-06T05:36:42.972Z,5.63
2022-09-06T05:39:12.359Z,5.90
2022-09-06T05:41:40.345Z,6.35
2022-09-06T05:44:08.154Z,6.70
2022-09-06T05:57:22.757Z,7.05
2022-09-06T05:59:51.042Z,7.28
2022-09-06T06:02:19.040Z,6.50
2022-09-06T06:04:47.131Z,7.40
2022-09-06T06:07:15.548Z,7.32
2022-09-06T06:09:43.366Z,7.60
2022-09-06T06:12:11.492Z,7.05
2022-09-06T06:14:41.073Z,7.05
2022-09-06T06:17:08.858Z,6.57
2022-09-06T06:19:37.473Z,6.72
2022-09-06T06:22:05.429Z,8.10
2022-09-06T06:24:33.293Z,7.00
2022-09-06T06:27:01.069Z,6.65
2022-09-06T06:29:28.886Z,7.25
2022-09-06T06:31:58.129Z,6.75
2022-09-06T06:34:26.183Z,7.00
2022-09-06T06:36:53.991Z,6.85
2022-09-06T06:39:22.055Z,6.70
2022-09-06T06:41:50.804Z,6.65
2022-09-06T06:44:18.595Z,6.80
2022-09-06T06:46:46.400Z,7.40
2022-09-06T06:49:15.750Z,7.30
2022-09-06T06:51:43.605Z,7.32
2022-09-06T06:54:11.488Z,6.85
2022-09-06T06:56:42.124Z,6.53
2022-09-06T06:59:10.053Z,6.68
2022-09-06T07:01:39.182Z,6.35
2022-09-06T07:04:08.739Z,6.53
2022-09-06T07:12:26.238Z,5.70
2022-09-06T07:14:54.045Z,5.95
2022-09-06T07:17:21.945Z,5.70
2022-09-06T07:22:39.375Z,5.55
2022-09-06T07:25:09.063Z,5.03
2022-09-06T07:27:52.338Z,5.90
2022-09-06T07:30:20.929Z,5.30
2022-09-06T07:32:48.866Z,5.30
2022-09-06T07:35:16.876Z,5.10
2022-09-06T07:37:53.058Z,5.10
2022-09-06T07:40:20.884Z,4.60
2022-09-06T07:42:48.880Z,4.85
2022-09-06T07:45:17.038Z,4.38
2022-09-06T07:48:00.171Z,4.15
2022-09-06T07:53:27.782Z,4.45
2022-09-06T07:55:59.705Z,4.00
2022-09-06T07:58:27.641Z,3.92
2022-09-06T08:00:55.481Z,3.75
2022-09-06T08:03:23.415Z,3.65
2022-09-06T08:11:25.105Z,3.10
2022-09-06T08:13:54.752Z,3.00
2022-09-06T08:16:24.176Z,2.80
2022-09-06T08:18:53.535Z,2.70
2022-09-06T08:21:23.770Z,3.38
2022-09-06T08:23:56.603Z,3.05
2022-09-06T08:26:26.051Z,2.90
2022-09-06T08:29:00.120Z,2.83
2022-09-06T08:31:29.045Z,2.70
2022-09-06T08:33:57.852Z,2.75
2022-09-06T08:36:27.259Z,3.45
2022-09-06T08:38:56.525Z,3.78
2022-09-06T08:41:29.394Z,4.45
2022-09-06T08:46:55.438Z,6.03
2022-09-06T08:49:23.606Z,6.88
2022-09-06T08:52:19.699Z,4.43
2022-09-06T08:54:55.418Z,4.40
2022-09-06T08:57:40.393Z,3.90
2022-09-06T09:00:11.871Z,3.58
2022-09-06T09:02:44.619Z,3.50
2022-09-06T09:05:21.827Z,3.40
2022-09-06T09:08:01.008Z,3.50
2022-09-06T09:10:32.705Z,3.50
2022-09-06T09:13:05.618Z,3.70
2022-09-06T09:15:40.219Z,3.65
2022-09-06T09:18:09.340Z,3.60
2022-09-06T09:20:39.390Z,3.10
2022-09-06T09:23:07.497Z,3.10
2022-09-06T09:25:40.571Z,3.10
2022-09-06T09:28:17.276Z,3.30
2022-09-06T09:30:51.379Z,3.13
2022-09-06T09:33:28.513Z,3.13
2022-09-06T09:35:57.881Z,3.28
2022-09-06T09:38:28.182Z,3.90
2022-09-06T09:40:59.408Z,2.88
2022-09-06T09:43:29.729Z,2.75
2022-09-06T09:46:16.772Z,2.47
2022-09-06T09:49:00.317Z,2.30
2022-09-06T09:51:29.046Z,2.50
2022-09-06T09:53:58.217Z,2.88
2022-09-06T09:56:35.715Z,3.10
2022-09-06T09:59:04.703Z,3.00
2022-09-06T10:01:34.176Z,2.58
2022-09-06T10:07:08.884Z,2.90
2022-09-06T10:09:39.764Z,2.85
2022-09-06T10:12:09.173Z,2.67
2022-09-06T10:14:44.162Z,2.58
2022-09-06T10:17:20.711Z,2.58
2022-09-06T10:19:48.925Z,3.30
2022-09-06T10:22:30.524Z,3.67
2022-09-06T10:25:34.233Z,3.30
2022-09-06T10:28:31.229Z,2.85
2022-09-06T10:31:25.371Z,2.60
2022-09-06T10:34:03.151Z,3.22
2022-09-06T10:36:41.520Z,2.80
2022-09-06T10:39:26.664Z,2.40
2022-09-06T10:42:06.965Z,2.50
2022-09-06T10:44:54.166Z,2.50
2022-09-06T10:47:29.029Z,2.50
2022-09-06T10:50:00.613Z,2.88
2022-09-06T10:52:34.527Z,2.40
2022-09-06T10:55:05.648Z,2.42
2022-09-06T11:00:28.745Z,2.65
2022-09-06T11:05:54.282Z,2.58
2022-09-06T11:11:19.047Z,3.00
2022-09-06T11:13:47.321Z,3.17
2022-09-06T11:16:22.233Z,2.63
2022-09-06T11:18:55.778Z,2.60
2022-09-06T11:21:46.713Z,2.92
2022-09-06T11:24:17.001Z,2.70
2022-09-06T11:26:46.702Z,2.90
2022-09-06T11:29:23.807Z,3.00
2022-09-06T11:34:54.392Z,2.90
2022-09-06T11:37:27.451Z,2.70
2022-09-06T11:43:15.470Z,2.35
2022-09-06T11:45:47.737Z,2.33
2022-09-06T11:49:03.484Z,2.28
2022-09-06T11:51:37.115Z,2.60
2022-09-06T11:54:24.333Z,2.33
2022-09-06T11:56:58.048Z,2.35
2022-09-06T11:59:37.119Z,2.70
2022-09-06T12:02:07.080Z,2.60
2022-09-06T12:05:11.938Z,2.45
2022-09-06T12:08:25.479Z,2.60
2022-09-06T12:11:06.068Z,1.90
2022-09-06T12:13:36.018Z,3.00
2022-09-06T12:16:03.959Z,2.75
2022-09-06T12:18:58.382Z,3.00
2022-09-06T12:21:52.284Z,2.72
2022-09-06T12:24:55.600Z,2.40
2022-09-06T12:27:26.758Z,2.80
2022-09-06T12:29:59.423Z,2.83
2022-09-06T12:32:36.578Z,2.50
2022-09-06T12:37:57.239Z,2.50
2022-09-06T12:40:28.473Z,2.40
2022-09-06T12:42:56.787Z,2.40
2022-09-06T12:45:27.556Z,2.40
2022-09-06T12:48:06.236Z,2.83
2022-09-06T12:50:34.187Z,2.40
2022-09-06T12:53:03.999Z,2.42
2022-09-06T12:55:36.472Z,2.53
2022-09-06T12:58:07.667Z,2.30
2022-09-06T13:00:39.480Z,2.67
2022-09-06T13:03:21.452Z,2.08
2022-09-06T13:05:49.463Z,2.05
2022-09-06T13:08:25.035Z,2.38
2022-09-06T13:10:54.319Z,2.20
2022-09-06T13:13:25.896Z,2.40
2022-09-06T13:15:54.482Z,2.05
2022-09-06T13:18:27.247Z,2.25
2022-09-06T13:20:59.321Z,2.17
2022-09-06T13:25:56.806Z,2.40
2022-09-06T13:28:29.810Z,2.15
2022-09-06T13:31:08.023Z,2.03
2022-09-06T13:33:37.714Z,1.90
2022-09-06T13:36:09.151Z,2.20
2022-09-06T13:38:41.978Z,2.20
2022-09-06T13:41:44.429Z,2.20
2022-09-06T13:44:21.396Z,2.00
2022-09-06T13:46:55.141Z,2.03
2022-09-06T13:49:23.847Z,4.72
2022-09-06T13:51:52.763Z,1.88
2022-09-06T13:54:20.565Z,1.90
2022-09-06T13:56:50.016Z,2.10
2022-09-06T13:59:18.858Z,2.08
2022-09-06T14:01:48.725Z,2.00
2022-09-06T14:04:21.448Z,2.17
2022-09-06T14:06:50.054Z,2.10
2022-09-06T14:09:17.809Z,2.20
2022-09-06T14:11:48.173Z,2.10
2022-09-06T14:14:18.624Z,2.30
2022-09-06T14:16:47.581Z,2.20
2022-09-06T14:19:16.171Z,2.20
2022-09-06T14:21:44.405Z,2.10
2022-09-06T14:24:12.196Z,3.10
2022-09-06T14:26:40.157Z,2.38
2022-09-06T14:29:08.210Z,2.35
2022-09-06T14:31:37.465Z,2.13
2022-09-06T14:34:05.153Z,2.30
2022-09-06T14:36:34.555Z,2.10
2022-09-06T14:39:03.066Z,1.90
2022-09-06T14:41:31.248Z,2.13
2022-09-06T14:44:00.025Z,2.10
2022-09-06T14:46:30.048Z,2.10
2022-09-06T14:49:01.588Z,2.08
2022-09-06T14:51:30.895Z,2.20
2022-09-06T14:54:00.793Z,2.00
2022-09-06T14:56:28.586Z,2.00
2022-09-06T14:58:57.869Z,2.10
2022-09-06T15:01:26.886Z,2.20
2022-09-06T15:03:57.790Z,2.25
2022-09-06T15:06:28.626Z,2.10
2022-09-06T15:08:59.454Z,2.05
2022-09-06T15:11:34.279Z,2.50
2022-09-06T15:14:02.662Z,2.20
2022-09-06T15:16:30.425Z,2.20
2022-09-06T15:18:58.249Z,1.90
2022-09-06T15:21:27.455Z,1.80
2022-09-06T15:23:55.770Z,2.00
2022-09-06T15:26:23.601Z,1.80
2022-09-06T15:28:51.917Z,1.80
2022-09-06T15:31:20.315Z,1.80
2022-09-06T15:34:23.762Z,2.00
2022-09-06T15:36:54.532Z,1.80
2022-09-06T15:39:22.360Z,1.98
2022-09-06T15:41:51.567Z,1.85
2022-09-06T15:44:21.428Z,1.77
2022-09-06T15:46:51.084Z,1.65
2022-09-06T15:49:26.943Z,1.80
2022-09-06T15:52:02.302Z,1.80
2022-09-06T15:54:47.987Z,1.70
2022-09-06T15:57:16.794Z,1.80
2022-09-06T15:59:44.957Z,1.98
2022-09-06T16:02:13.233Z,2.08
2022-09-06T16:04:41.255Z,1.98
2022-09-06T16:07:11.602Z,1.67
2022-09-06T16:09:39.852Z,1.90
2022-09-06T16:12:08.523Z,1.88
2022-09-06T16:14:36.341Z,1.80
2022-09-06T16:17:04.412Z,2.22
2022-09-06T16:19:32.272Z,1.58
2022-09-06T16:22:00.933Z,2.17
2022-09-06T16:24:30.098Z,1.70
2022-09-06T16:26:57.928Z,2.03
2022-09-06T16:29:26.228Z,1.92
2022-09-06T16:31:59.551Z,1.90
2022-09-06T16:34:27.868Z,1.98
2022-09-06T16:36:56.987Z,2.15
2022-09-06T16:39:24.893Z,1.80
2022-09-06T16:41:54.141Z,1.60
2022-09-06T16:44:21.886Z,1.90
2022-09-06T16:46:52.911Z,1.92
2022-09-06T16:49:21.423Z,1.80
2022-09-06T16:51:50.605Z,1.70
2022-09-06T16:54:19.459Z,1.90
2022-09-06T16:56:47.596Z,2.30
2022-09-06T16:59:17.422Z,2.00
2022-09-06T17:01:45.694Z,1.98
2022-09-06T17:04:13.919Z,1.80
2022-09-06T17:06:44.419Z,1.98
2022-09-06T17:09:14.112Z,1.95
2022-09-06T17:11:42.441Z,1.90
2022-09-06T17:14:10.321Z,1.90
2022-09-06T17:16:57.237Z,1.92
2022-09-06T17:19:25.146Z,1.80
2022-09-06T17:21:52.965Z,1.98
2022-09-06T17:24:21.068Z,2.15
2022-09-06T17:26:48.875Z,1.80
2022-09-06T17:29:16.725Z,2.10
2022-09-06T17:31:46.132Z,2.20
2022-09-06T17:34:13.963Z,2.20
2022-09-06T17:36:41.754Z,1.92
2022-09-06T17:39:13.764Z,2.53
2022-09-06T17:44:11.769Z,2.95
2022-09-06T17:46:51.967Z,3.00
2022-09-06T17:49:30.513Z,2.67
2022-09-06T17:51:58.446Z,2.40
2022-09-06T17:54:26.663Z,2.20
2022-09-06T17:56:54.553Z,2.42
2022-09-06T17:59:22.396Z,2.10
2022-09-06T18:01:50.186Z,2.40
2022-09-06T18:04:19.398Z,2.47
2022-09-06T18:06:48.624Z,2.60
2022-09-06T18:09:18.029Z,2.70
2022-09-06T18:11:47.153Z,2.30
2022-09-06T18:14:17.310Z,2.45
2022-09-06T18:16:47.221Z,2.70
2022-09-06T18:19:15.938Z,2.60
2022-09-06T18:21:43.764Z,2.75
2022-09-06T18:24:13.935Z,2.80
2022-09-06T18:26:42.840Z,2.47
2022-09-06T18:29:22.284Z,2.10
2022-09-06T18:31:57.750Z,2.63
2022-09-06T18:34:43.210Z,2.20
2022-09-06T18:37:23.200Z,2.85
2022-09-06T18:40:20.875Z,2.53
2022-09-06T18:43:08.220Z,2.40
2022-09-06T18:45:36.278Z,2.20
2022-09-06T18:48:05.412Z,2.40
2022-09-06T18:50:34.161Z,2.13
2022-09-06T18:53:02.049Z,2.10
2022-09-06T18:55:31.723Z,2.30
2022-09-06T18:57:59.850Z,2.20
2022-09-06T19:00:27.837Z,2.40
2022-09-06T19:02:55.620Z,2.35
2022-09-06T19:05:23.459Z,2.13
2022-09-06T19:07:51.248Z,2.92
2022-09-06T19:10:19.118Z,2.50
2022-09-06T19:12:53.024Z,2.30
2022-09-06T19:15:21.799Z,2.10
2022-09-06T19:17:50.381Z,2.05
2022-09-06T19:20:18.495Z,2.28
2022-09-06T19:22:46.399Z,2.10
2022-09-06T19:25:14.189Z,2.53
2022-09-06T19:27:45.569Z,2.17
2022-09-06T19:30:17.754Z,2.38
2022-09-06T19:32:45.574Z,2.13
2022-09-06T19:35:15.787Z,2.30
2022-09-06T19:37:43.647Z,1.80
2022-09-06T19:40:23.839Z,1.98
2022-09-06T19:42:52.179Z,2.28
2022-09-06T19:45:21.546Z,2.40
2022-09-06T19:47:51.207Z,2.58
2022-09-06T19:50:21.179Z,2.25
2022-09-06T19:52:49.417Z,2.53
2022-09-06T19:55:17.267Z,3.03
2022-09-06T19:57:45.083Z,2.92
2022-09-06T20:00:14.781Z,2.50
2022-09-06T20:02:43.959Z,2.30
2022-09-06T20:05:11.777Z,2.50
2022-09-06T20:07:39.767Z,2.40
2022-09-06T20:10:08.045Z,2.78
2022-09-06T20:12:36.447Z,2.50
2022-09-06T20:15:04.557Z,2.50
2022-09-06T20:17:34.353Z,2.40
2022-09-06T20:20:04.731Z,2.38
2022-09-06T20:22:32.753Z,2.15
2022-09-06T20:25:00.603Z,2.00
2022-09-06T20:27:29.870Z,2.40
2022-09-06T20:29:59.142Z,2.03
2022-09-06T20:32:26.960Z,2.17
2022-09-06T20:34:54.873Z,2.40
2022-09-06T20:37:24.106Z,2.30
2022-09-06T20:39:52.288Z,2.30
2022-09-06T20:42:20.227Z,1.98
2022-09-06T20:44:48.007Z,2.10
2022-09-06T20:47:16.065Z,2.28
2022-09-06T20:49:44.355Z,2.25
2022-09-06T20:52:12.201Z,2.30
2022-09-06T20:54:41.406Z,2.28
2022-09-06T20:57:09.280Z,2.30
2022-09-06T20:59:37.155Z,2.80
2022-09-06T21:02:05.517Z,2.50
2022-09-06T21:04:33.397Z,2.60
2022-09-06T21:07:01.316Z,2.40
2022-09-06T21:09:29.141Z,2.50
2022-09-06T21:11:59.053Z,2.90
2022-09-06T21:14:27.049Z,3.08
2022-09-06T21:16:54.830Z,2.95
2022-09-06T21:19:22.671Z,2.78
2022-09-06T21:21:50.478Z,2.95
2022-09-06T21:24:18.421Z,3.17
2022-09-06T21:26:46.433Z,3.00
2022-09-06T21:29:15.605Z,3.20
2022-09-06T21:31:43.530Z,3.13
2022-09-06T21:34:16.915Z,3.00
2022-09-06T21:36:45.940Z,3.45
2022-09-06T21:39:14.126Z,3.60
2022-09-06T21:41:43.618Z,3.53
2022-09-06T21:44:12.087Z,3.50
2022-09-06T21:46:42.050Z,3.30
2022-09-06T21:49:12.043Z,3.50
2022-09-06T21:51:40.007Z,3.38
2022-09-06T21:54:07.973Z,2.90
2022-09-06T21:56:39.092Z,2.80
2022-09-06T21:59:07.386Z,2.97
2022-09-06T22:01:37.050Z,2.40
2022-09-06T22:04:08.264Z,2.58
2022-09-06T22:06:36.707Z,2.50
2022-09-06T22:09:07.671Z,2.45
2022-09-06T22:11:38.765Z,2.33
2022-09-06T22:14:08.385Z,2.30
2022-09-06T22:16:38.636Z,2.20
2022-09-06T22:19:09.216Z,2.20
2022-09-06T22:21:38.577Z,2.10
2022-09-06T22:24:08.500Z,2.38
2022-09-06T22:26:38.134Z,2.20
2022-09-06T22:29:10.421Z,2.15
2022-09-06T22:31:39.082Z,2.00
2022-09-06T22:34:08.448Z,2.17
2022-09-06T22:36:36.878Z,2.10
2022-09-06T22:39:05.403Z,1.83
2022-09-06T22:41:34.163Z,2.08
2022-09-06T22:44:02.449Z,2.25
2022-09-06T22:46:30.706Z,1.92
2022-09-06T22:48:58.802Z,1.70
2022-09-06T22:51:28.197Z,2.05
2022-09-06T22:53:56.171Z,2.03
2022-09-06T22:56:24.424Z,1.90
2022-09-06T22:58:52.249Z,1.85
2022-09-06T23:01:20.158Z,1.75
2022-09-06T23:03:48.126Z,1.73
2022-09-06T23:06:16.106Z,2.28
2022-09-06T23:08:45.326Z,2.10
2022-09-06T23:11:15.615Z,2.00
2022-09-06T23:13:44.512Z,2.08
2022-09-06T23:16:14.486Z,2.10
2022-09-06T23:18:42.886Z,2.00
2022-09-06T23:21:12.824Z,2.17
2022-09-06T23:23:41.588Z,1.98
2022-09-06T23:26:12.882Z,1.98
2022-09-06T23:28:40.759Z,1.67
2022-09-06T23:31:10.729Z,1.90
2022-09-06T23:33:38.986Z,2.33
2022-09-06T23:36:08.271Z,2.88
2022-09-06T23:38:37.559Z,2.58
2022-09-06T23:41:06.624Z,2.20
2022-09-06T23:43:35.803Z,2.50
2022-09-06T23:46:03.786Z,2.35
2022-09-06T23:48:31.922Z,2.42
2022-09-06T23:51:00.055Z,2.40
2022-09-06T23:53:27.833Z,2.58
2022-09-06T23:55:55.730Z,1.90
2022-09-06T23:58:23.651Z,2.80
